You are not logged in, Click here to log in
機場資訊:RJFF Welcome to Taiwan Airways 台灣虛擬航空
ICAO: RJFF Country: 日本福岡縣福岡市博多區
Latitude: 33.5903 Longitude: 130.447
Total Arrivals: 145 Total Departures: 130
Latest Arrival: AE140 (RKPC-RJFF)Lun. Wang Latest Departure: EH1672 (RJFF-RJOO)Lun. Wang
Scenery:
METAR : RJFF 170500Z 13006KT 090V170 9999 FEW040 SCT120 BKN/// 20/03 Q1020 NOSIG RMK 1CU040 3AC120 A3012

福岡空港/板付機場 FUK